createdAt,value
2016-06-15T00:00:25.831Z,0
2016-06-15T00:01:24.569Z,0
2016-06-15T00:02:22.166Z,0
2016-06-15T00:03:22.559Z,0
2016-06-15T00:04:22.578Z,0
2016-06-15T00:05:22.769Z,0
2016-06-15T00:06:21.334Z,0
2016-06-15T00:07:34.962Z,0
2016-06-15T00:08:22.809Z,0
2016-06-15T00:09:34.702Z,0
2016-06-15T00:10:21.753Z,0
2016-06-15T00:11:20.943Z,0
2016-06-15T00:12:20.400Z,0
2016-06-15T00:13:21.589Z,0
2016-06-15T00:14:21.500Z,0
2016-06-15T00:15:22.862Z,0
2016-06-15T00:16:21.428Z,0
2016-06-15T00:17:22.524Z,0
2016-06-15T00:18:20.824Z,0
2016-06-15T00:19:21.468Z,0
2016-06-15T00:20:25.393Z,0
2016-06-15T00:21:20.662Z,0
2016-06-15T00:22:33.664Z,0
2016-06-15T00:23:20.809Z,0
2016-06-15T00:24:20.905Z,0
2016-06-15T00:25:33.721Z,0
2016-06-15T00:26:20.473Z,0
2016-06-15T00:27:20.196Z,0
2016-06-15T00:28:33.417Z,0
2016-06-15T00:29:33.468Z,0
2016-06-15T00:30:33.563Z,0
2016-06-15T00:31:33.395Z,0
2016-06-15T00:32:33.695Z,0
2016-06-15T00:33:33.386Z,0
2016-06-15T00:34:33.498Z,0
2016-06-15T00:35:33.564Z,0
2016-06-15T00:36:20.740Z,0
2016-06-15T00:37:33.257Z,0
2016-06-15T00:38:24.401Z,0
2016-06-15T00:39:34.889Z,0
2016-06-15T00:40:21.580Z,0
2016-06-15T00:41:21.425Z,0
2016-06-15T00:42:21.601Z,0
2016-06-15T00:43:34.417Z,0
2016-06-15T00:44:20.670Z,0
2016-06-15T00:45:33.282Z,0
2016-06-15T00:46:20.707Z,0
2016-06-15T00:47:33.851Z,0
2016-06-15T00:49:22.732Z,0
2016-06-15T00:50:21.469Z,0
2016-06-15T00:52:20.584Z,0
2016-06-15T00:53:33.151Z,0
2016-06-15T00:54:33.420Z,0
2016-06-15T00:55:33.594Z,0
2016-06-15T00:56:20.754Z,0
2016-06-15T00:57:33.491Z,0
2016-06-15T00:58:33.806Z,0
2016-06-15T00:59:33.580Z,0
2016-06-15T01:00:34.448Z,0
2016-06-15T01:01:23.206Z,0
2016-06-15T01:02:20.932Z,0
2016-06-15T01:03:37.250Z,0
2016-06-15T01:04:33.844Z,0
2016-06-15T01:05:34.407Z,0
2016-06-15T01:06:34.110Z,0
2016-06-15T01:07:20.861Z,0
2016-06-15T01:08:20.917Z,0
2016-06-15T01:09:25.832Z,0
2016-06-15T01:10:34.261Z,0
2016-06-15T01:11:34.114Z,0
2016-06-15T01:12:33.871Z,0
2016-06-15T01:13:33.580Z,0
2016-06-15T01:14:21.115Z,0
2016-06-15T01:15:36.948Z,0
2016-06-15T01:16:33.969Z,0
2016-06-15T01:17:33.676Z,0
2016-06-15T01:18:33.368Z,0
2016-06-15T01:19:22.762Z,0
2016-06-15T01:20:21.219Z,0
2016-06-15T01:21:33.676Z,0
2016-06-15T01:22:33.696Z,0
2016-06-15T01:23:20.589Z,0
2016-06-15T01:24:21.608Z,0
2016-06-15T01:25:37.345Z,0
2016-06-15T01:26:33.473Z,0
2016-06-15T01:27:20.274Z,0
2016-06-15T01:28:32.604Z,0
2016-06-15T01:29:23.062Z,0
2016-06-15T01:30:28.735Z,0
2016-06-15T01:31:34.364Z,0
2016-06-15T01:32:36.445Z,0
2016-06-15T01:33:20.527Z,0
2016-06-15T01:34:29.497Z,0
2016-06-15T01:35:33.767Z,0
2016-06-15T01:36:19.691Z,0
2016-06-15T01:37:19.632Z,0
2016-06-15T01:38:33.745Z,0
2016-06-15T01:39:21.404Z,0
2016-06-15T01:40:19.532Z,0
2016-06-15T01:41:34.348Z,0
2016-06-15T01:42:20.538Z,0
2016-06-15T01:43:33.744Z,0
2016-06-15T01:44:33.701Z,0
2016-06-15T01:45:20.719Z,0
2016-06-15T01:46:33.800Z,0
2016-06-15T01:47:20.772Z,0
2016-06-15T01:48:26.213Z,0
2016-06-15T01:49:33.544Z,0
2016-06-15T01:50:21.532Z,0
2016-06-15T01:51:19.722Z,0
2016-06-15T01:52:33.616Z,0
2016-06-15T01:53:23.353Z,0
2016-06-15T01:54:20.575Z,0
2016-06-15T01:55:21.000Z,0
2016-06-15T01:56:34.050Z,0
2016-06-15T01:57:33.693Z,0
2016-06-15T01:58:23.446Z,0
2016-06-15T01:59:50.263Z,0
2016-06-15T02:00:23.516Z,0
2016-06-15T02:01:22.972Z,0
2016-06-15T02:02:34.241Z,0
2016-06-15T02:03:20.603Z,0
2016-06-15T02:04:33.590Z,0
2016-06-15T02:05:19.578Z,0
2016-06-15T02:06:21.190Z,0
2016-06-15T02:07:26.490Z,0
2016-06-15T02:08:21.384Z,0
2016-06-15T02:09:23.012Z,0
2016-06-15T02:10:19.530Z,0
2016-06-15T02:11:19.706Z,0
2016-06-15T02:12:19.600Z,0
2016-06-15T02:13:20.165Z,0
2016-06-15T02:14:20.637Z,0
2016-06-15T02:15:19.671Z,0
2016-06-15T02:16:19.643Z,0
2016-06-15T02:17:20.443Z,0
2016-06-15T02:18:23.477Z,0
2016-06-15T02:19:21.308Z,0
2016-06-15T02:20:21.374Z,0
2016-06-15T02:21:23.424Z,0
2016-06-15T02:22:18.271Z,0
2016-06-15T02:23:18.164Z,0
2016-06-15T02:24:18.387Z,0
2016-06-15T02:25:17.951Z,0
2016-06-15T02:26:18.501Z,0
2016-06-15T02:27:19.629Z,0
2016-06-15T02:28:31.961Z,0
2016-06-15T02:29:19.557Z,0
2016-06-15T02:30:19.905Z,0
2016-06-15T02:31:19.626Z,0
2016-06-15T02:32:19.833Z,0
2016-06-15T02:33:22.742Z,0
2016-06-15T02:34:19.464Z,0
2016-06-15T02:35:21.154Z,0
2016-06-15T02:36:21.251Z,0
2016-06-15T02:37:19.691Z,0
2016-06-15T02:38:18.491Z,0
2016-06-15T02:39:19.697Z,0
2016-06-15T02:40:19.700Z,0
2016-06-15T02:41:19.814Z,0
2016-06-15T02:42:18.566Z,0
2016-06-15T02:43:21.617Z,0
2016-06-15T02:44:19.588Z,0
2016-06-15T02:45:32.482Z,0
2016-06-15T02:46:18.094Z,0
2016-06-15T02:47:18.426Z,0
2016-06-15T02:48:18.335Z,0
2016-06-15T02:49:21.432Z,0
2016-06-15T02:50:22.701Z,0
2016-06-15T02:51:19.688Z,0
2016-06-15T02:52:18.332Z,0
2016-06-15T02:53:21.709Z,0
2016-06-15T02:54:32.229Z,0
2016-06-15T02:57:17.627Z,0
2016-06-15T02:58:19.616Z,0
2016-06-15T02:59:18.805Z,0
2016-06-15T03:00:19.809Z,0
2016-06-15T03:01:34.078Z,0
2016-06-15T03:02:19.723Z,0
2016-06-15T03:03:18.318Z,0
2016-06-15T03:04:17.962Z,0
2016-06-15T03:05:17.574Z,0
2016-06-15T03:06:24.500Z,0
2016-06-15T03:09:19.619Z,0
2016-06-15T03:10:18.277Z,0
2016-06-15T03:11:19.437Z,0
2016-06-15T03:12:18.440Z,0
2016-06-15T03:13:18.709Z,0
2016-06-15T03:14:18.352Z,0
2016-06-15T03:15:18.324Z,0
2016-06-15T03:16:19.686Z,0
2016-06-15T03:17:16.737Z,0
2016-06-15T03:18:17.552Z,0
2016-06-15T03:19:18.336Z,0
2016-06-15T03:20:18.230Z,0
2016-06-15T03:21:19.561Z,0
2016-06-15T03:22:16.204Z,0
2016-06-15T03:23:18.005Z,0
2016-06-15T03:26:34.436Z,0
2016-06-15T03:28:18.630Z,0
2016-06-15T03:29:17.820Z,0
2016-06-15T03:31:16.920Z,0
2016-06-15T03:32:15.954Z,0
2016-06-15T03:33:15.926Z,0
2016-06-15T03:34:15.867Z,0
2016-06-15T03:35:15.901Z,0
2016-06-15T03:36:15.889Z,0
2016-06-15T03:37:44.189Z,0
2016-06-15T03:38:30.817Z,0
2016-06-15T03:40:19.354Z,0
2016-06-15T03:41:16.701Z,0
2016-06-15T03:43:17.473Z,0
2016-06-15T03:44:16.913Z,0
2016-06-15T03:45:29.745Z,0
2016-06-15T03:46:17.700Z,0
2016-06-15T03:47:15.876Z,0
2016-06-15T03:48:30.003Z,0
2016-06-15T03:49:29.945Z,0
2016-06-15T03:50:16.040Z,0
2016-06-15T03:51:20.935Z,0
2016-06-15T03:52:17.421Z,0
2016-06-15T03:53:30.097Z,0
2016-06-15T03:54:17.693Z,0
2016-06-15T03:55:16.963Z,0
2016-06-15T03:57:16.141Z,0
2016-06-15T03:58:19.973Z,0
2016-06-15T04:01:17.685Z,0
2016-06-15T04:02:16.671Z,0
2016-06-15T04:03:17.581Z,0
2016-06-15T04:06:30.590Z,0
2016-06-15T04:08:19.737Z,0
2016-06-15T04:09:15.115Z,0
2016-06-15T04:10:15.040Z,0
2016-06-15T04:12:15.062Z,0
2016-06-15T04:13:19.877Z,0
2016-06-15T04:14:19.568Z,0
2016-06-15T04:15:14.790Z,0
2016-06-15T04:16:15.011Z,0
2016-06-15T04:17:14.874Z,0
2016-06-15T04:18:14.721Z,0
2016-06-15T04:19:15.615Z,0
2016-06-15T04:20:15.993Z,0
2016-06-15T04:21:25.777Z,0
2016-06-15T04:22:16.124Z,0
2016-06-15T04:23:29.674Z,0
2016-06-15T04:24:29.412Z,0
2016-06-15T04:25:16.102Z,0
2016-06-15T04:26:18.074Z,0
2016-06-15T04:27:15.779Z,0
2016-06-15T04:28:15.580Z,0
2016-06-15T04:29:15.568Z,0
2016-06-15T04:30:15.211Z,0
2016-06-15T04:32:16.999Z,0
2016-06-15T04:33:15.705Z,0
2016-06-15T04:34:15.755Z,0
2016-06-15T04:35:15.695Z,0
2016-06-15T04:36:14.886Z,5
2016-06-15T04:37:15.982Z,5
2016-06-15T04:38:14.876Z,5
2016-06-15T04:39:15.238Z,5
2016-06-15T04:40:15.289Z,5
2016-06-15T04:41:15.416Z,5
2016-06-15T04:42:28.904Z,5
2016-06-15T04:43:14.953Z,5
2016-06-15T04:44:14.894Z,5
2016-06-15T04:45:18.116Z,5
2016-06-15T04:46:15.042Z,5
2016-06-15T04:47:19.950Z,5
2016-06-15T04:48:15.360Z,5
2016-06-15T04:49:14.519Z,5
2016-06-15T04:50:15.257Z,5
2016-06-15T04:51:15.572Z,5
2016-06-15T04:52:14.169Z,5
2016-06-15T04:53:14.250Z,5
2016-06-15T04:54:14.128Z,5
2016-06-15T04:55:14.553Z,5
2016-06-15T04:56:14.212Z,5
2016-06-15T04:57:14.044Z,5
2016-06-15T04:58:27.874Z,5
2016-06-15T04:59:14.050Z,5
2016-06-15T05:00:15.130Z,5
2016-06-15T05:01:18.603Z,5
2016-06-15T05:02:14.778Z,10
2016-06-15T05:03:13.734Z,10
2016-06-15T05:04:17.925Z,10
2016-06-15T05:05:28.834Z,10
2016-06-15T05:06:27.571Z,10
2016-06-15T05:07:14.309Z,10
2016-06-15T05:08:13.781Z,10
2016-06-15T05:09:13.502Z,10
2016-06-15T05:10:28.037Z,10
2016-06-15T05:11:32.180Z,10
2016-06-15T05:12:15.481Z,10
2016-06-15T05:13:29.218Z,10
2016-06-15T05:14:15.659Z,10
2016-06-15T05:15:15.677Z,10
2016-06-15T05:16:15.571Z,10
2016-06-15T05:17:15.574Z,15
2016-06-15T05:19:20.472Z,15
2016-06-15T05:20:16.067Z,10
2016-06-15T05:21:32.493Z,10
2016-06-15T05:22:28.402Z,10
2016-06-15T05:24:15.579Z,10
2016-06-15T05:25:29.552Z,10
2016-06-15T05:26:14.789Z,10
2016-06-15T05:27:18.918Z,10
2016-06-15T05:28:13.530Z,10
2016-06-15T05:29:13.439Z,10
2016-06-15T05:30:13.364Z,10
2016-06-15T05:31:13.383Z,10
2016-06-15T05:32:13.417Z,10
2016-06-15T05:33:14.623Z,10
2016-06-15T05:34:13.329Z,10
2016-06-15T05:35:13.802Z,10
2016-06-15T05:36:13.179Z,10
2016-06-15T05:37:13.698Z,10
2016-06-15T05:38:15.232Z,10
2016-06-15T05:39:13.454Z,10
2016-06-15T05:41:15.320Z,10
2016-06-15T05:42:18.667Z,10
2016-06-15T05:43:15.528Z,10
2016-06-15T05:44:13.235Z,10
2016-06-15T05:45:15.348Z,10
2016-06-15T05:46:18.273Z,10
2016-06-15T05:47:16.275Z,10
2016-06-15T05:48:20.170Z,10
2016-06-15T05:49:30.047Z,10
2016-06-15T05:50:16.128Z,10
2016-06-15T05:52:16.073Z,10
2016-06-15T05:54:14.516Z,10
2016-06-15T05:55:15.846Z,10
2016-06-15T05:56:44.975Z,10
2016-06-15T05:57:31.119Z,10
2016-06-15T05:59:01.794Z,10
2016-06-15T05:59:32.344Z,10
2016-06-15T06:00:28.628Z,10
2016-06-15T06:01:30.772Z,10
2016-06-15T06:02:34.947Z,10
2016-06-15T06:03:18.887Z,10
2016-06-15T06:05:34.221Z,10
2016-06-15T06:13:15.700Z,10
2016-06-15T06:15:19.925Z,10
2016-06-15T06:16:34.021Z,10
2016-06-15T06:17:18.712Z,10
2016-06-15T06:18:34.199Z,10
2016-06-15T06:20:16.971Z,10
2016-06-15T06:23:30.511Z,10
2016-06-15T06:27:20.930Z,15
2016-06-15T06:30:21.845Z,15
2016-06-15T06:31:32.755Z,15
2016-06-15T06:32:20.367Z,15
2016-06-15T06:33:17.230Z,15
2016-06-15T06:34:18.077Z,15
2016-06-15T06:35:30.736Z,15
2016-06-15T06:36:32.630Z,15
2016-06-15T06:38:18.292Z,15
2016-06-15T06:43:23.354Z,15
2016-06-15T06:44:43.950Z,10
2016-06-15T06:45:36.439Z,10
2016-06-15T06:46:33.878Z,10
2016-06-15T06:47:29.835Z,10
2016-06-15T06:52:21.679Z,10
2016-06-15T06:53:16.385Z,10
2016-06-15T06:54:18.091Z,10
2016-06-15T06:55:14.892Z,15
2016-06-15T06:56:15.034Z,20
2016-06-15T06:57:15.195Z,15
2016-06-15T06:58:14.806Z,15
2016-06-15T06:59:18.091Z,15
2016-06-15T07:00:15.625Z,15
2016-06-15T07:01:15.300Z,15
2016-06-15T07:02:30.288Z,10
2016-06-15T07:03:30.119Z,10
2016-06-15T07:05:20.156Z,10
2016-06-15T07:06:15.487Z,10
2016-06-15T07:07:15.225Z,5
2016-06-15T07:08:19.853Z,10
2016-06-15T07:09:43.590Z,10
2016-06-15T07:10:16.984Z,10
2016-06-15T07:11:29.878Z,15
2016-06-15T07:12:20.161Z,15
2016-06-15T07:13:30.025Z,15
2016-06-15T07:14:16.355Z,15
2016-06-15T07:15:14.187Z,20
2016-06-15T07:16:14.409Z,20
2016-06-15T07:17:17.334Z,15
2016-06-15T07:18:20.571Z,20
2016-06-15T07:19:18.965Z,20
2016-06-15T07:20:17.390Z,15
2016-06-15T07:21:17.987Z,15
2016-06-15T07:23:15.883Z,10
2016-06-15T07:24:17.245Z,10
2016-06-15T07:25:15.687Z,10
2016-06-15T07:26:15.564Z,10
2016-06-15T07:27:28.943Z,10
2016-06-15T07:28:15.430Z,10
2016-06-15T07:29:16.074Z,10
2016-06-15T07:30:15.905Z,10
2016-06-15T07:31:29.017Z,10
2016-06-15T07:32:16.958Z,10
2016-06-15T07:33:13.989Z,10
2016-06-15T07:34:16.026Z,15
2016-06-15T07:35:13.948Z,15
2016-06-15T07:36:14.467Z,15
2016-06-15T07:37:16.504Z,20
2016-06-15T07:38:16.132Z,20
2016-06-15T07:39:15.885Z,20
2016-06-15T07:40:16.545Z,25
2016-06-15T07:41:15.814Z,25
2016-06-15T07:42:14.080Z,25
2016-06-15T07:43:14.082Z,25
2016-06-15T07:44:15.714Z,25
2016-06-15T07:45:14.135Z,20
2016-06-15T07:48:16.210Z,25
2016-06-15T07:49:15.900Z,25
2016-06-15T07:50:15.919Z,20
2016-06-15T07:51:17.250Z,25
2016-06-15T07:52:16.739Z,20
2016-06-15T07:53:16.537Z,20
2016-06-15T07:54:16.212Z,20
2016-06-15T07:55:15.669Z,20
2016-06-15T07:56:16.001Z,20
2016-06-15T07:57:15.488Z,20
2016-06-15T07:58:15.381Z,20
2016-06-15T07:59:14.396Z,20
2016-06-15T08:00:16.294Z,25
2016-06-15T08:01:18.266Z,25
2016-06-15T08:02:16.394Z,25
2016-06-15T08:03:42.365Z,30
2016-06-15T08:04:15.540Z,25
2016-06-15T08:05:15.040Z,25
2016-06-15T08:06:14.918Z,25
2016-06-15T08:07:18.299Z,25
2016-06-15T08:08:15.678Z,30
2016-06-15T08:09:15.553Z,30
2016-06-15T08:10:18.293Z,30
2016-06-15T08:12:13.437Z,25
2016-06-15T08:13:13.267Z,25
2016-06-15T08:14:13.131Z,25
2016-06-15T08:15:13.165Z,25
2016-06-15T08:16:13.293Z,25
2016-06-15T08:17:13.156Z,20
2016-06-15T08:18:13.455Z,25
2016-06-15T08:19:13.036Z,25
2016-06-15T08:20:13.539Z,20
2016-06-15T08:21:13.308Z,20
2016-06-15T08:22:18.548Z,20
2016-06-15T08:23:40.599Z,20
2016-06-15T08:24:18.446Z,20
2016-06-15T08:25:26.871Z,20
2016-06-15T08:26:13.715Z,20
2016-06-15T08:27:18.330Z,25
2016-06-15T08:29:24.070Z,30
2016-06-15T08:29:53.867Z,35
2016-06-15T08:30:40.058Z,30
2016-06-15T08:31:39.154Z,40
2016-06-15T08:32:53.533Z,35
2016-06-15T08:33:39.723Z,35
2016-06-15T08:34:50.289Z,30
2016-06-15T08:35:40.605Z,30
2016-06-15T08:36:48.749Z,25
2016-06-15T08:37:43.877Z,20
2016-06-15T08:38:41.254Z,20
2016-06-15T08:39:54.101Z,20
2016-06-15T08:42:07.310Z,20
2016-06-15T08:42:40.298Z,20
2016-06-15T08:43:39.488Z,20
2016-06-15T08:44:45.632Z,20
2016-06-15T08:45:53.730Z,20
2016-06-15T08:46:40.372Z,20
2016-06-15T08:48:52.878Z,20
2016-06-15T08:49:40.053Z,25
2016-06-15T08:50:40.870Z,20
2016-06-15T08:51:40.419Z,20
2016-06-15T08:52:40.063Z,15
2016-06-15T08:53:39.565Z,15
2016-06-15T08:54:39.366Z,15
2016-06-15T08:55:41.025Z,15
2016-06-15T08:56:40.419Z,20
2016-06-15T08:57:38.984Z,20
2016-06-15T08:58:56.066Z,20
2016-06-15T08:59:39.006Z,25
2016-06-15T09:00:43.275Z,25
2016-06-15T09:01:43.826Z,30
2016-06-15T09:02:38.688Z,30
2016-06-15T09:03:39.644Z,30
2016-06-15T09:04:38.506Z,30
2016-06-15T09:05:38.338Z,30
2016-06-15T09:06:53.169Z,30
2016-06-15T09:07:40.437Z,30
2016-06-15T09:08:37.629Z,30
2016-06-15T09:09:37.959Z,30
2016-06-15T09:10:38.024Z,30
2016-06-15T09:11:51.325Z,30
2016-06-15T09:12:37.437Z,35
2016-06-15T09:13:44.179Z,25
2016-06-15T09:14:38.155Z,30
2016-06-15T09:16:11.034Z,35
2016-06-15T09:16:37.674Z,30
2016-06-15T09:17:37.177Z,25
2016-06-15T09:18:37.462Z,25
2016-06-15T09:19:50.983Z,20
2016-06-15T09:20:37.296Z,25
2016-06-15T09:21:37.550Z,25
2016-06-15T09:22:40.598Z,25
2016-06-15T09:23:37.462Z,30
2016-06-15T09:24:37.167Z,25
2016-06-15T09:25:37.280Z,20
2016-06-15T09:26:37.392Z,15
2016-06-15T09:27:37.349Z,15
2016-06-15T09:28:37.586Z,10
2016-06-15T09:29:37.146Z,10
2016-06-15T09:30:37.071Z,5
2016-06-15T09:31:37.027Z,5
2016-06-15T09:32:37.031Z,5
2016-06-15T09:33:36.971Z,10
2016-06-15T09:34:37.270Z,10
2016-06-15T09:35:36.946Z,15
2016-06-15T09:36:36.934Z,15
2016-06-15T09:37:36.982Z,20
2016-06-15T09:38:36.860Z,20
2016-06-15T09:39:36.942Z,20
2016-06-15T09:40:37.305Z,20
2016-06-15T09:41:36.902Z,20
2016-06-15T09:42:36.998Z,20
2016-06-15T09:43:36.767Z,20
2016-06-15T09:44:36.786Z,20
2016-06-15T09:45:36.790Z,20
2016-06-15T09:46:36.995Z,20
2016-06-15T09:47:36.748Z,20
2016-06-15T09:48:37.079Z,20
2016-06-15T09:49:36.411Z,20
2016-06-15T09:50:36.507Z,20
2016-06-15T09:51:36.464Z,20
2016-06-15T09:52:37.311Z,15
2016-06-15T09:53:36.861Z,20
2016-06-15T09:54:36.566Z,20
2016-06-15T09:55:36.617Z,20
2016-06-15T09:56:36.541Z,20
2016-06-15T09:57:36.404Z,20
2016-06-15T09:58:40.297Z,25
2016-06-15T09:59:36.520Z,25
2016-06-15T10:00:50.338Z,30
2016-06-15T10:01:36.494Z,35
2016-06-15T10:02:36.497Z,30
2016-06-15T10:03:36.547Z,30
2016-06-15T10:04:36.678Z,35
2016-06-15T10:05:36.409Z,30
2016-06-15T10:06:36.436Z,30
2016-06-15T10:07:36.855Z,30
2016-06-15T10:08:36.460Z,35
2016-06-15T10:09:36.600Z,40
2016-06-15T10:10:36.759Z,45
2016-06-15T10:11:36.259Z,45
2016-06-15T10:12:36.464Z,40
2016-06-15T10:13:36.607Z,35
2016-06-15T10:14:36.324Z,30
2016-06-15T10:15:36.441Z,30
2016-06-15T10:16:38.918Z,25
2016-06-15T10:17:54.138Z,20
2016-06-15T10:18:36.403Z,15
2016-06-15T10:19:36.379Z,15
2016-06-15T10:20:36.369Z,15
2016-06-15T10:21:36.702Z,15
2016-06-15T10:22:37.988Z,25
2016-06-15T10:23:36.430Z,25
2016-06-15T10:24:36.309Z,25
2016-06-15T10:25:36.298Z,25
2016-06-15T10:26:36.333Z,25
2016-06-15T10:27:36.257Z,25
2016-06-15T10:28:36.511Z,25
2016-06-15T10:29:36.234Z,25
2016-06-15T10:30:36.159Z,25
2016-06-15T10:31:36.083Z,25
2016-06-15T10:32:36.134Z,30
2016-06-15T10:33:36.262Z,30
2016-06-15T10:34:36.469Z,30
2016-06-15T10:35:40.629Z,35
2016-06-15T10:36:51.850Z,30
2016-06-15T10:37:58.513Z,25
2016-06-15T10:38:59.578Z,30
2016-06-15T10:39:57.688Z,30
2016-06-15T10:41:07.757Z,30
2016-06-15T10:42:40.291Z,30
2016-06-15T10:43:07.513Z,30
2016-06-15T10:43:56.216Z,35
2016-06-15T10:44:56.094Z,25
2016-06-15T10:46:29.507Z,30
2016-06-15T10:47:24.228Z,30
2016-06-15T10:49:07.341Z,35
2016-06-15T10:49:58.485Z,35
2016-06-15T10:50:53.051Z,30
2016-06-15T10:52:14.807Z,25
2016-06-15T10:54:37.078Z,35
2016-06-15T10:55:50.706Z,30
2016-06-15T10:56:04.597Z,30
2016-06-15T10:57:04.819Z,30
2016-06-15T10:58:04.478Z,30
2016-06-15T10:59:04.340Z,35
2016-06-15T11:00:04.469Z,30
2016-06-15T11:01:04.144Z,40
2016-06-15T11:02:04.288Z,45
2016-06-15T11:03:04.713Z,40
2016-06-15T11:04:04.419Z,35
2016-06-15T11:05:04.391Z,35
2016-06-15T11:06:04.456Z,40
2016-06-15T11:07:05.648Z,30
2016-06-15T11:08:04.446Z,35
2016-06-15T11:09:04.590Z,25
2016-06-15T11:10:04.282Z,30
2016-06-15T11:11:04.127Z,30
2016-06-15T11:12:04.241Z,35
2016-06-15T11:13:04.244Z,35
2016-06-15T11:14:04.184Z,35
2016-06-15T11:15:04.327Z,35
2016-06-15T11:16:04.190Z,35
2016-06-15T11:17:04.131Z,40
2016-06-15T11:18:03.821Z,35
2016-06-15T11:19:04.138Z,35
2016-06-15T11:20:04.155Z,40
2016-06-15T11:21:04.550Z,40
2016-06-15T11:22:03.990Z,55
2016-06-15T11:23:04.883Z,40
2016-06-15T11:24:04.058Z,45
2016-06-15T11:25:04.156Z,50
2016-06-15T11:26:04.048Z,45
2016-06-15T11:27:04.287Z,45
2016-06-15T11:28:04.040Z,45
2016-06-15T11:29:04.760Z,40
2016-06-15T11:30:03.905Z,45
2016-06-15T11:31:04.002Z,55
2016-06-15T11:32:04.130Z,55
2016-06-15T11:33:04.367Z,60
2016-06-15T11:34:03.808Z,55
2016-06-15T11:35:03.826Z,60
2016-06-15T11:36:03.862Z,60
2016-06-15T11:37:04.958Z,55
2016-06-15T11:38:03.648Z,50
2016-06-15T11:39:04.151Z,50
2016-06-15T11:40:03.576Z,60
2016-06-15T11:41:04.391Z,60
2016-06-15T11:42:03.551Z,50
2016-06-15T11:43:03.633Z,45
2016-06-15T11:44:03.714Z,45
2016-06-15T11:45:03.951Z,50
2016-06-15T11:46:03.595Z,50
2016-06-15T11:47:03.630Z,55
2016-06-15T11:48:03.819Z,55
2016-06-15T11:49:03.697Z,60
2016-06-15T11:50:03.545Z,55
2016-06-15T11:51:03.813Z,65
2016-06-15T11:52:03.364Z,70
2016-06-15T11:53:03.664Z,80
2016-06-15T11:54:03.495Z,75
2016-06-15T11:55:03.498Z,80
2016-06-15T11:56:03.625Z,65
2016-06-15T11:57:03.691Z,50
2016-06-15T11:58:03.413Z,45
2016-06-15T11:59:03.307Z,40
2016-06-15T12:00:03.373Z,40
2016-06-15T12:01:03.266Z,45
2016-06-15T12:02:03.285Z,55
2016-06-15T12:03:03.538Z,45
2016-06-15T12:04:03.229Z,60
2016-06-15T12:05:03.591Z,75
2016-06-15T12:06:05.234Z,105
2016-06-15T12:07:03.066Z,65
2016-06-15T12:08:03.771Z,30
2016-06-15T12:09:03.666Z,30
2016-06-15T12:10:03.137Z,20
2016-06-15T12:11:03.297Z,15
2016-06-15T12:12:03.300Z,15
2016-06-15T12:13:03.115Z,15
2016-06-15T12:14:03.243Z,15
2016-06-15T12:15:03.435Z,15
2016-06-15T12:16:03.000Z,15
2016-06-15T12:17:02.987Z,15
2016-06-15T12:18:03.427Z,15
2016-06-15T12:19:03.462Z,15
2016-06-15T12:20:06.278Z,15
2016-06-15T12:21:03.234Z,15
2016-06-15T12:22:03.159Z,15
2016-06-15T12:23:02.692Z,15
2016-06-15T12:24:02.759Z,15
2016-06-15T12:25:02.840Z,15
2016-06-15T12:26:02.827Z,15
2016-06-15T12:27:03.955Z,15
2016-06-15T12:28:03.036Z,15
2016-06-15T12:29:02.789Z,15
2016-06-15T12:30:03.121Z,10
2016-06-15T12:31:02.671Z,10
2016-06-15T12:32:02.721Z,10
2016-06-15T12:33:03.098Z,10
2016-06-15T12:34:02.757Z,10
2016-06-15T12:35:02.511Z,10
2016-06-15T12:36:02.639Z,10
2016-06-15T12:37:02.563Z,10
2016-06-15T12:38:02.583Z,10
2016-06-15T12:39:02.851Z,10
2016-06-15T12:40:02.573Z,10
2016-06-15T12:41:02.577Z,10
2016-06-15T12:42:02.829Z,10
2016-06-15T12:43:02.504Z,10
2016-06-15T12:44:02.382Z,10
2016-06-15T12:45:05.761Z,10
2016-06-15T12:46:02.420Z,10
2016-06-15T12:47:02.689Z,10
2016-06-15T12:48:02.379Z,10
2016-06-15T12:49:02.460Z,10
2016-06-15T12:50:02.385Z,10
2016-06-15T12:51:02.638Z,10
2016-06-15T12:52:02.485Z,10
2016-06-15T12:53:02.254Z,10
2016-06-15T12:54:02.304Z,5
2016-06-15T12:55:02.245Z,5
2016-06-15T12:56:02.278Z,5
2016-06-15T12:57:02.985Z,5
2016-06-15T12:58:02.238Z,5
2016-06-15T12:59:02.288Z,5
2016-06-15T13:00:02.729Z,5
2016-06-15T13:01:05.451Z,5
2016-06-15T13:02:02.610Z,5
2016-06-15T13:03:02.722Z,5
2016-06-15T13:04:01.960Z,5
2016-06-15T13:05:02.056Z,5
2016-06-15T13:06:02.356Z,5
2016-06-15T13:07:16.141Z,5
2016-06-15T13:08:02.050Z,5
2016-06-15T13:09:02.272Z,5
2016-06-15T13:10:02.385Z,5
2016-06-15T13:11:02.199Z,5
2016-06-15T13:12:02.406Z,5
2016-06-15T13:13:01.910Z,5
2016-06-15T13:14:01.880Z,5
2016-06-15T13:15:02.150Z,5
2016-06-15T13:16:01.825Z,5
2016-06-15T13:17:01.828Z,5
2016-06-15T13:18:01.784Z,5
2016-06-15T13:19:01.818Z,5
2016-06-15T13:20:01.790Z,10
2016-06-15T13:21:01.841Z,10
2016-06-15T13:22:02.062Z,10
2016-06-15T13:23:01.955Z,15
2016-06-15T13:24:01.975Z,15
2016-06-15T13:25:01.711Z,15
2016-06-15T13:26:01.793Z,20
2016-06-15T13:27:01.937Z,20
2016-06-15T13:28:01.690Z,25
2016-06-15T13:29:01.598Z,25
2016-06-15T13:30:01.649Z,30
2016-06-15T13:31:01.371Z,30
2016-06-15T13:32:01.577Z,35
2016-06-15T13:33:01.814Z,40
2016-06-15T13:34:02.755Z,50
2016-06-15T13:35:01.399Z,75
2016-06-15T13:36:01.308Z,90
2016-06-15T13:37:01.530Z,100
2016-06-15T13:38:02.283Z,85
2016-06-15T13:39:01.708Z,85
2016-06-15T13:40:01.335Z,95
2016-06-15T13:41:01.417Z,105
2016-06-15T13:42:01.389Z,105
2016-06-15T13:43:01.392Z,100
2016-06-15T13:44:01.333Z,100
2016-06-15T13:45:01.555Z,100
2016-06-15T13:46:01.229Z,105
2016-06-15T13:47:01.685Z,115
2016-06-15T13:48:01.752Z,150
2016-06-15T13:49:01.380Z,125
2016-06-15T13:50:01.164Z,60
2016-06-15T13:51:01.464Z,35
2016-06-15T13:52:00.935Z,35
2016-06-15T13:53:00.986Z,30
2016-06-15T13:54:01.098Z,30
2016-06-15T13:55:00.960Z,25
2016-06-15T13:56:01.026Z,25
2016-06-15T13:57:01.295Z,25
2016-06-15T13:58:01.110Z,25
2016-06-15T13:59:01.160Z,30
2016-06-15T14:00:01.272Z,30
2016-06-15T14:01:01.478Z,30
2016-06-15T14:02:00.935Z,35
2016-06-15T14:03:01.064Z,35
2016-06-15T14:04:01.066Z,35
2016-06-15T14:05:00.913Z,40
2016-06-15T14:06:00.854Z,35
2016-06-15T14:07:00.857Z,35
2016-06-15T14:08:00.938Z,35
2016-06-15T14:09:01.191Z,30
2016-06-15T14:10:00.772Z,25
2016-06-15T14:11:00.884Z,25
2016-06-15T14:12:01.247Z,25
2016-06-15T14:13:00.860Z,25
2016-06-15T14:14:00.550Z,20
2016-06-15T14:15:00.991Z,20
2016-06-15T14:16:14.494Z,20
2016-06-15T14:17:00.622Z,20
2016-06-15T14:18:01.172Z,20
2016-06-15T14:19:00.175Z,20
2016-06-15T14:20:00.850Z,20
2016-06-15T14:21:00.915Z,15
2016-06-15T14:22:00.731Z,20
2016-06-15T14:23:01.437Z,15
2016-06-15T14:24:01.174Z,15
2016-06-15T14:25:00.474Z,15
2016-06-15T14:26:00.510Z,15
2016-06-15T14:27:00.762Z,15
2016-06-15T14:28:00.452Z,15
2016-06-15T14:29:00.425Z,15
2016-06-15T14:30:00.897Z,15
2016-06-15T14:31:00.289Z,15
2016-06-15T14:32:00.684Z,15
2016-06-15T14:33:00.576Z,15
2016-06-15T14:34:00.612Z,15
2016-06-15T14:35:00.365Z,15
2016-06-15T14:36:00.321Z,15
2016-06-15T14:37:00.730Z,15
2016-06-15T14:38:00.342Z,15
2016-06-15T14:39:00.409Z,15
2016-06-15T14:40:00.208Z,15
2016-06-15T14:41:00.462Z,15
2016-06-15T14:42:00.276Z,15
2016-06-15T14:43:00.123Z,15
2016-06-15T14:44:00.127Z,15
2016-06-15T14:45:00.660Z,15
2016-06-15T14:46:00.133Z,15
2016-06-15T14:46:59.916Z,15
2016-06-15T14:48:00.030Z,15
2016-06-15T14:49:00.033Z,15
2016-06-15T14:50:00.004Z,15
2016-06-15T14:51:00.336Z,15
2016-06-15T14:51:59.948Z,15
2016-06-15T14:52:59.842Z,15
2016-06-15T14:53:59.720Z,15
2016-06-15T14:55:00.051Z,15
2016-06-15T14:55:59.914Z,15
2016-06-15T14:57:00.245Z,15
2016-06-15T14:57:59.794Z,15
2016-06-15T14:58:59.642Z,15
2016-06-15T14:59:59.754Z,15
2016-06-15T15:00:59.600Z,15
2016-06-15T15:01:59.729Z,15
2016-06-15T15:03:00.154Z,15
2016-06-15T15:03:59.829Z,15
2016-06-15T15:04:59.597Z,15
2016-06-15T15:05:59.632Z,15
2016-06-15T15:06:59.635Z,15
2016-06-15T15:07:59.732Z,15
2016-06-15T15:08:59.594Z,15
2016-06-15T15:09:59.566Z,20
2016-06-15T15:10:59.679Z,20
2016-06-15T15:11:59.604Z,20
2016-06-15T15:12:59.591Z,20
2016-06-15T15:13:59.485Z,20
2016-06-15T15:14:59.613Z,20
2016-06-15T15:15:59.569Z,20
2016-06-15T15:16:59.603Z,20
2016-06-15T15:17:59.528Z,20
2016-06-15T15:18:59.501Z,25
2016-06-15T15:19:59.441Z,25
2016-06-15T15:20:59.632Z,25
2016-06-15T15:21:59.416Z,25
2016-06-15T15:23:00.138Z,25
2016-06-15T15:23:59.405Z,25
2016-06-15T15:24:59.269Z,25
2016-06-15T15:25:59.271Z,25
2016-06-15T15:26:59.462Z,25